Time;durP1;ratioP1;P1;durP2;ratioP2;P2;SDS_P1;SDS_P2;PMS_P1;PMS_P2;Temp;Humidity;BMP_temperature;BMP_pressure;BME280_temperature;BME280_humidity;BME280_pressure;Samples;Min_cycle;Max_cycle;Signal;HPM_P1;HPM_P2
2022/08/05 00:01:24;;;;;;;6.23;5.67;;;22.80;99.90;;;;;;5030663;28;20935;-66
2022/08/05 00:03:51;;;;;;;6.83;6.00;;;22.80;99.90;;;;;;5030728;28;20453;-67
2022/08/05 00:06:18;;;;;;;7.00;6.30;;;22.70;99.90;;;;;;5030222;28;20475;-64
2022/08/05 00:08:45;;;;;;;6.63;6.03;;;22.70;99.90;;;;;;5029893;28;20922;-66
2022/08/05 00:11:14;;;;;;;5.93;5.30;;;22.70;99.90;;;;;;5029706;28;20480;-66
2022/08/05 00:13:42;;;;;;;10.60;6.23;;;22.70;99.90;;;;;;5029490;28;20453;-64
2022/08/05 00:16:12;;;;;;;6.93;6.27;;;22.80;99.90;;;;;;5029526;28;20492;-66
2022/08/05 00:18:41;;;;;;;7.00;6.23;;;22.80;99.90;;;;;;5029922;28;20472;-66
2022/08/05 00:21:09;;;;;;;7.10;6.40;;;22.70;99.90;;;;;;5032895;28;20455;-66
2022/08/05 00:23:36;;;;;;;7.27;6.57;;;22.70;99.90;;;;;;5033748;28;20488;-66
2022/08/05 00:26:03;;;;;;;6.70;6.10;;;22.70;99.90;;;;;;5033106;28;20465;-66
2022/08/05 00:28:29;;;;;;;6.70;5.90;;;22.60;99.90;;;;;;5033733;28;20449;-67
2022/08/05 00:30:56;;;;;;;8.13;7.27;;;22.60;99.90;;;;;;5033711;28;20467;-67
2022/08/05 00:33:24;;;;;;;7.20;6.50;;;22.70;99.90;;;;;;5033437;28;20444;-66
2022/08/05 00:35:51;;;;;;;8.23;6.70;;;22.60;99.90;;;;;;5033179;28;20479;-67
2022/08/05 00:38:18;;;;;;;7.13;6.50;;;22.60;99.90;;;;;;5033335;28;20805;-66
2022/08/05 00:40:50;;;;;;;8.17;6.30;;;22.50;99.90;;;;;;5033275;28;20457;-66
2022/08/05 00:43:17;;;;;;;7.47;6.77;;;22.40;99.90;;;;;;5033567;28;20847;-64
2022/08/05 00:45:46;;;;;;;7.30;6.60;;;22.40;99.90;;;;;;5033197;28;20477;-67
2022/08/05 00:48:15;;;;;;;8.13;7.30;;;22.40;99.90;;;;;;5033318;28;20822;-66
2022/08/05 00:50:45;;;;;;;7.30;6.57;;;22.40;99.90;;;;;;5033271;28;20506;-66
2022/08/05 00:53:13;;;;;;;7.87;6.30;;;22.40;99.90;;;;;;5033010;28;20449;-67
2022/08/05 00:55:40;;;;;;;9.33;6.07;;;22.40;99.90;;;;;;5033118;28;21013;-65
2022/08/05 00:58:06;;;;;;;7.83;7.10;;;22.50;99.90;;;;;;5033357;28;20449;-66
2022/08/05 01:00:33;;;;;;;8.20;6.50;;;22.50;99.90;;;;;;5033714;28;20449;-67
2022/08/05 01:03:00;;;;;;;6.47;5.97;;;22.40;99.90;;;;;;5033484;28;21358;-66
2022/08/05 01:05:27;;;;;;;6.97;6.27;;;22.40;99.90;;;;;;5033402;28;20488;-66
2022/08/05 01:07:56;;;;;;;6.60;5.80;;;22.30;99.90;;;;;;5033797;28;20445;-66
2022/08/05 01:10:28;;;;;;;5.77;5.17;;;22.30;99.90;;;;;;5033751;28;20449;-67
2022/08/05 01:13:00;;;;;;;5.83;5.10;;;22.50;99.90;;;;;;5033738;28;20444;-67
2022/08/05 01:15:32;;;;;;;7.80;4.17;;;22.70;99.90;;;;;;5033395;28;20457;-66
2022/08/05 01:18:04;;;;;;;6.30;4.70;;;23.00;99.90;;;;;;5032852;28;20459;-67
2022/08/05 01:20:40;;;;;;;5.53;4.13;;;23.20;99.80;;;;;;5032876;28;20815;-66
2022/08/05 01:23:16;;;;;;;5.97;4.30;;;23.40;98.60;;;;;;5032945;28;20456;-67
2022/08/05 01:26:03;;;;;;;8.20;3.30;;;23.50;98.20;;;;;;5032249;28;20488;-66
2022/08/05 01:28:36;;;;;;;8.23;4.10;;;23.60;97.80;;;;;;5032505;28;20476;-67
2022/08/05 01:31:08;;;;;;;7.77;3.53;;;23.60;97.50;;;;;;5032368;28;20455;-67
2022/08/05 01:33:41;;;;;;;7.13;4.67;;;23.60;97.40;;;;;;5032636;28;20460;-68
2022/08/05 01:36:13;;;;;;;5.20;4.30;;;23.60;97.40;;;;;;5031993;28;20457;-67
2022/08/05 01:38:40;;;;;;;4.47;3.90;;;23.50;97.20;;;;;;5032408;28;20441;-67
2022/08/05 01:41:07;;;;;;;7.60;4.20;;;23.40;97.70;;;;;;5032264;28;20479;-67
2022/08/05 01:43:37;;;;;;;4.60;4.00;;;23.30;99.10;;;;;;5032505;28;20452;-66
2022/08/05 01:46:05;;;;;;;5.70;4.10;;;23.20;99.90;;;;;;5031870;28;20461;-67
2022/08/05 01:48:36;;;;;;;4.40;3.27;;;23.10;99.60;;;;;;5032254;28;20621;-67
2022/08/05 01:51:04;;;;;;;6.00;3.90;;;23.00;99.70;;;;;;5032167;28;20939;-66
2022/08/05 01:53:34;;;;;;;8.33;4.03;;;22.90;99.90;;;;;;5032202;28;20456;-68
2022/08/05 01:56:03;;;;;;;4.43;3.60;;;22.90;99.80;;;;;;5031927;28;20465;-65
2022/08/05 01:58:32;;;;;;;4.33;3.50;;;22.80;99.90;;;;;;5031983;28;20445;-68
2022/08/05 02:01:01;;;;;;;6.40;3.60;;;22.70;99.90;;;;;;5031976;28;20467;-68
2022/08/05 02:03:32;;;;;;;6.87;3.63;;;22.60;99.90;;;;;;5031899;28;20451;-67
2022/08/05 02:06:00;;;;;;;5.10;3.90;;;22.60;99.90;;;;;;5031473;28;20883;-68
2022/08/05 02:08:27;;;;;;;3.93;3.47;;;22.50;99.90;;;;;;5032113;28;20801;-68
2022/08/05 02:11:02;;;;;;;4.40;3.50;;;22.40;99.90;;;;;;5032237;28;20448;-67
2022/08/05 02:13:37;;;;;;;4.33;3.50;;;22.40;99.90;;;;;;5031970;28;21193;-66
2022/08/05 02:16:13;;;;;;;6.90;4.30;;;22.30;99.90;;;;;;5031568;28;20464;-65
2022/08/05 02:18:44;;;;;;;4.80;3.30;;;22.30;99.90;;;;;;5031811;28;20445;-66
2022/08/05 02:21:16;;;;;;;4.63;3.90;;;22.20;99.90;;;;;;5032005;28;20461;-66
2022/08/05 02:23:46;;;;;;;5.93;3.90;;;22.10;99.90;;;;;;5031624;28;20985;-66
2022/08/05 02:26:19;;;;;;;6.70;4.10;;;22.10;99.90;;;;;;5030918;28;20484;-66
2022/08/05 02:28:47;;;;;;;4.50;3.93;;;22.00;99.90;;;;;;5031636;28;20449;-66
2022/08/05 02:31:22;;;;;;;4.83;4.10;;;21.90;99.90;;;;;;5031444;28;20800;-69
2022/08/05 02:33:51;;;;;;;6.10;4.17;;;22.00;99.90;;;;;;5031264;28;20451;-65
2022/08/05 02:36:22;;;;;;;5.43;4.00;;;22.00;99.90;;;;;;5030983;28;20469;-66
2022/08/05 02:38:50;;;;;;;4.83;3.73;;;22.10;99.90;;;;;;5031305;28;20475;-67
2022/08/05 02:41:19;;;;;;;7.50;3.80;;;22.10;99.90;;;;;;5031201;28;20463;-67
2022/08/05 02:43:47;;;;;;;6.57;3.43;;;22.10;99.90;;;;;;5030561;28;20454;-67
2022/08/05 02:46:17;;;;;;;11.80;4.20;;;22.00;99.90;;;;;;5030655;28;20488;-67
2022/08/05 02:48:44;;;;;;;7.40;3.73;;;22.10;99.90;;;;;;5031097;28;20453;-68
2022/08/05 02:51:13;;;;;;;7.67;3.60;;;22.10;99.90;;;;;;5030971;28;20445;-66
2022/08/05 02:53:42;;;;;;;4.40;3.60;;;22.20;99.90;;;;;;5030891;28;20821;-66
2022/08/05 02:56:11;;;;;;;6.67;4.30;;;22.20;99.90;;;;;;5030364;28;20505;-66
2022/08/05 02:58:40;;;;;;;4.23;3.20;;;22.10;99.90;;;;;;5030805;28;20539;-67
2022/08/05 03:01:10;;;;;;;6.90;3.83;;;22.10;99.90;;;;;;5030798;28;20459;-67
2022/08/05 03:03:40;;;;;;;6.70;4.20;;;22.10;99.90;;;;;;5030823;28;20973;-67
2022/08/05 03:06:09;;;;;;;10.80;4.40;;;22.10;99.90;;;;;;5030144;28;20491;-67
2022/08/05 03:08:37;;;;;;;6.10;4.00;;;22.00;99.90;;;;;;5030692;28;20475;-66
2022/08/05 03:11:04;;;;;;;5.40;3.87;;;22.10;99.90;;;;;;5030735;28;20449;-67
2022/08/05 03:13:31;;;;;;;4.40;4.00;;;22.10;99.90;;;;;;5030562;28;20488;-67
2022/08/05 03:15:58;;;;;;;7.23;4.13;;;22.00;99.90;;;;;;5030153;28;20453;-67
2022/08/05 03:18:24;;;;;;;7.37;3.70;;;22.10;99.90;;;;;;5030493;28;20820;-68
2022/08/05 03:20:53;;;;;;;6.00;4.20;;;22.20;99.90;;;;;;5030237;28;20455;-67
2022/08/05 03:23:19;;;;;;;5.00;4.00;;;22.30;99.90;;;;;;5030255;28;20456;-67
2022/08/05 03:25:46;;;;;;;7.30;4.20;;;22.30;99.90;;;;;;5030124;28;20520;-68
2022/08/05 03:28:14;;;;;;;9.43;4.30;;;22.40;99.90;;;;;;5030399;28;20800;-67
2022/08/05 03:30:41;;;;;;;8.50;4.77;;;22.40;99.90;;;;;;5030118;28;20449;-68
2022/08/05 03:33:08;;;;;;;5.93;4.13;;;22.40;99.90;;;;;;5030268;28;20441;-66
2022/08/05 03:35:35;;;;;;;16.00;4.10;;;22.40;99.90;;;;;;5029577;28;20499;-68
2022/08/05 03:38:03;;;;;;;9.83;4.50;;;22.40;99.90;;;;;;5030322;28;20467;-68
2022/08/05 03:40:30;;;;;;;11.40;4.10;;;22.40;99.90;;;;;;5030091;28;20455;-69
2022/08/05 03:42:57;;;;;;;6.33;3.77;;;22.40;99.90;;;;;;5030035;28;20817;-68
2022/08/05 03:45:24;;;;;;;5.40;4.37;;;22.40;99.90;;;;;;5029772;28;20491;-67
2022/08/05 03:47:51;;;;;;;11.70;4.20;;;22.30;99.90;;;;;;5030051;28;20457;-67
2022/08/05 03:50:18;;;;;;;6.90;4.80;;;22.20;99.90;;;;;;5029999;28;20453;-67
2022/08/05 03:52:52;;;;;;;7.73;3.90;;;22.10;99.90;;;;;;5030399;28;20445;-68
2022/08/05 03:55:27;;;;;;;7.53;3.93;;;22.00;99.90;;;;;;5028909;28;20440;-68
2022/08/05 03:57:56;;;;;;;10.70;3.83;;;21.90;99.90;;;;;;5029882;28;20449;-67
2022/08/05 04:00:28;;;;;;;8.03;4.83;;;21.80;99.90;;;;;;5029686;28;20459;-66
2022/08/05 04:02:57;;;;;;;10.57;4.80;;;21.70;99.90;;;;;;5030061;28;20590;-68
2022/08/05 04:05:25;;;;;;;7.60;5.50;;;21.70;99.90;;;;;;5029445;28;20499;-67
2022/08/05 04:07:52;;;;;;;6.77;4.03;;;21.60;99.90;;;;;;5029720;28;20448;-68
2022/08/05 04:10:20;;;;;;;7.10;4.37;;;21.60;99.90;;;;;;5029927;28;20480;-68
2022/08/05 04:12:47;;;;;;;7.33;3.87;;;21.70;99.90;;;;;;5029905;28;20455;-68
2022/08/05 04:15:15;;;;;;;5.80;4.70;;;21.80;99.90;;;;;;5029454;28;20441;-68
2022/08/05 04:17:41;;;;;;;5.67;4.67;;;21.90;99.90;;;;;;5029895;28;20449;-68
2022/08/05 04:20:18;;;;;;;6.10;4.23;;;21.90;99.90;;;;;;5030033;28;20448;-66
2022/08/05 04:22:45;;;;;;;7.17;4.43;;;21.80;99.90;;;;;;5029512;28;20502;-67
2022/08/05 04:25:12;;;;;;;7.80;4.83;;;21.70;99.90;;;;;;5029246;28;20564;-67
2022/08/05 04:27:40;;;;;;;5.60;4.57;;;21.70;99.90;;;;;;5029428;28;20861;-68
2022/08/05 04:30:10;;;;;;;8.53;5.00;;;21.70;99.90;;;;;;5029420;28;20451;-66
2022/08/05 04:32:37;;;;;;;10.10;4.93;;;21.80;99.90;;;;;;5029584;28;20440;-68
2022/08/05 04:35:04;;;;;;;6.47;4.90;;;21.90;99.90;;;;;;5029156;28;20468;-68
2022/08/05 04:37:31;;;;;;;9.80;5.00;;;22.00;99.90;;;;;;5029628;28;20548;-67
2022/08/05 04:39:58;;;;;;;11.40;4.70;;;22.00;99.90;;;;;;5029778;28;20459;-66
2022/08/05 04:42:25;;;;;;;8.93;4.60;;;21.90;99.90;;;;;;5030133;28;20963;-68
2022/08/05 04:44:53;;;;;;;9.70;4.70;;;21.90;99.90;;;;;;5029749;28;20429;-67
2022/08/05 04:47:20;;;;;;;7.10;4.60;;;21.90;99.90;;;;;;5030285;28;20472;-67
2022/08/05 04:49:47;;;;;;;7.17;5.20;;;21.90;99.90;;;;;;5030104;28;20459;-68
2022/08/05 04:52:13;;;;;;;7.67;5.60;;;22.00;99.90;;;;;;5029466;28;20452;-67
2022/08/05 04:54:40;;;;;;;8.37;5.20;;;22.10;99.90;;;;;;5029621;28;20441;-67
2022/08/05 04:57:07;;;;;;;9.20;5.07;;;22.20;99.90;;;;;;5030075;28;20479;-67
2022/08/05 04:59:34;;;;;;;8.20;4.87;;;22.30;99.90;;;;;;5029604;28;20449;-67
2022/08/05 05:02:02;;;;;;;8.30;4.80;;;22.30;99.90;;;;;;5028991;28;20455;-67
2022/08/05 05:04:29;;;;;;;7.43;5.07;;;22.30;99.90;;;;;;5028865;28;20451;-67
2022/08/05 05:06:55;;;;;;;7.60;4.80;;;22.20;99.90;;;;;;5031449;28;20496;-66
2022/08/05 05:09:22;;;;;;;7.63;5.00;;;22.30;99.90;;;;;;5032795;28;20456;-67
2022/08/05 05:11:49;;;;;;;7.67;5.20;;;22.40;99.90;;;;;;5032762;28;20881;-66
2022/08/05 05:14:16;;;;;;;7.50;5.67;;;22.40;99.90;;;;;;5032641;28;20539;-65
2022/08/05 05:16:43;;;;;;;6.67;4.87;;;22.40;99.90;;;;;;5032297;28;20479;-66
2022/08/05 05:19:11;;;;;;;10.73;5.53;;;22.40;99.90;;;;;;5032594;28;20456;-67
2022/08/05 05:21:41;;;;;;;14.60;5.20;;;22.50;99.90;;;;;;5032514;28;20444;-67
2022/08/05 05:24:08;;;;;;;9.37;5.90;;;22.70;99.90;;;;;;5032363;28;20962;-66
2022/08/05 05:26:35;;;;;;;9.80;5.60;;;22.80;99.90;;;;;;5032064;28;20492;-66
2022/08/05 05:29:01;;;;;;;14.27;5.60;;;23.00;99.90;;;;;;5032589;28;20459;-66
2022/08/05 05:31:28;;;;;;;10.30;6.87;;;23.10;99.90;;;;;;5032443;28;20448;-67
2022/08/05 05:33:55;;;;;;;9.63;6.10;;;23.30;99.90;;;;;;5032526;28;20527;-67
2022/08/05 05:36:23;;;;;;;12.07;6.83;;;23.50;99.90;;;;;;5031909;28;20469;-67
2022/08/05 05:38:50;;;;;;;11.70;6.77;;;23.60;99.90;;;;;;5032239;28;21096;-67
2022/08/05 05:41:17;;;;;;;8.87;7.00;;;23.70;99.90;;;;;;5032207;28;20441;-68
2022/08/05 05:43:44;;;;;;;11.53;7.17;;;23.90;99.90;;;;;;5032485;28;20445;-67
2022/08/05 05:46:11;;;;;;;10.53;6.33;;;24.00;99.90;;;;;;5031759;28;20522;-67
2022/08/05 05:48:40;;;;;;;9.40;6.50;;;24.10;99.90;;;;;;5032025;28;20449;-68
2022/08/05 05:51:07;;;;;;;13.70;7.27;;;24.20;99.90;;;;;;5031840;28;20809;-67
2022/08/05 05:53:35;;;;;;;7.63;5.93;;;24.30;99.90;;;;;;5032080;28;20444;-67
2022/08/05 05:56:02;;;;;;;8.93;7.13;;;24.30;99.90;;;;;;5031751;28;20997;-67
2022/08/05 05:58:29;;;;;;;8.33;6.60;;;24.40;99.90;;;;;;5032218;28;20540;-67
2022/08/05 06:00:55;;;;;;;10.40;6.17;;;24.50;99.90;;;;;;5032094;28;20805;-66
2022/08/05 06:03:22;;;;;;;8.63;5.73;;;24.60;99.90;;;;;;5031885;28;20450;-66
2022/08/05 06:05:49;;;;;;;8.97;5.30;;;24.70;99.90;;;;;;5031880;28;20571;-68
2022/08/05 06:08:16;;;;;;;7.43;4.90;;;24.70;99.90;;;;;;5032088;28;20954;-68
2022/08/05 06:10:44;;;;;;;8.33;5.37;;;24.90;99.90;;;;;;5031802;28;20460;-66
2022/08/05 06:13:11;;;;;;;7.03;4.40;;;24.90;99.90;;;;;;5031886;28;20453;-67
2022/08/05 06:15:38;;;;;;;6.80;5.00;;;25.00;99.90;;;;;;5031676;28;20567;-67
2022/08/05 06:18:05;;;;;;;7.13;4.40;;;25.00;99.90;;;;;;5030895;28;20456;-67
2022/08/05 06:20:32;;;;;;;4.63;3.87;;;25.10;99.90;;;;;;5031693;28;20968;-68
2022/08/05 06:22:59;;;;;;;6.57;4.30;;;25.20;99.90;;;;;;5032065;28;20453;-67
2022/08/05 06:25:26;;;;;;;5.87;5.33;;;25.30;99.90;;;;;;5031394;28;20480;-68
2022/08/05 06:27:54;;;;;;;6.10;4.57;;;25.30;99.90;;;;;;5030229;28;20842;-67
2022/08/05 06:30:21;;;;;;;5.33;4.03;;;25.40;99.90;;;;;;5030221;28;20453;-67
2022/08/05 06:32:48;;;;;;;6.70;4.63;;;25.50;99.90;;;;;;5031388;28;20499;-65
2022/08/05 06:35:15;;;;;;;5.83;5.20;;;25.50;99.90;;;;;;5030105;28;20484;-67
2022/08/05 06:37:41;;;;;;;4.97;4.57;;;25.50;99.90;;;;;;5031361;28;20882;-67
2022/08/05 06:40:09;;;;;;;7.33;4.17;;;25.50;99.90;;;;;;5031303;28;20451;-68
2022/08/05 06:42:37;;;;;;;5.60;4.90;;;25.50;99.90;;;;;;5031125;28;20464;-68
2022/08/05 06:45:06;;;;;;;6.50;4.50;;;25.70;99.90;;;;;;5030473;28;20445;-67
2022/08/05 06:47:33;;;;;;;6.13;4.43;;;25.70;99.90;;;;;;5030953;28;20488;-68
2022/08/05 06:50:00;;;;;;;5.90;4.70;;;25.70;99.90;;;;;;5030989;28;20528;-65
2022/08/05 06:52:26;;;;;;;5.87;4.10;;;25.80;99.90;;;;;;5030878;28;20449;-67
2022/08/05 06:54:53;;;;;;;6.07;4.73;;;25.90;99.90;;;;;;5030775;28;20453;-67
2022/08/05 06:57:20;;;;;;;7.10;4.53;;;26.00;99.90;;;;;;5030692;28;20554;-65
2022/08/05 06:59:47;;;;;;;4.93;4.40;;;26.10;99.90;;;;;;5030006;28;20444;-67
2022/08/05 07:02:15;;;;;;;6.93;4.20;;;26.30;99.90;;;;;;5030865;28;20818;-67
2022/08/05 07:04:42;;;;;;;5.33;4.30;;;26.40;99.90;;;;;;5030515;28;20449;-67
2022/08/05 07:07:09;;;;;;;6.63;4.83;;;26.40;99.90;;;;;;5030654;28;20576;-67
2022/08/05 07:09:35;;;;;;;6.07;4.43;;;26.20;99.90;;;;;;5030421;28;20460;-67
2022/08/05 07:12:02;;;;;;;4.97;4.40;;;26.10;99.90;;;;;;5030147;28;20445;-66
2022/08/05 07:17:31;;;;;;;5.00;4.50;;;26.00;99.90;;;;;;4988377;28;20423;-66
2022/08/05 07:19:59;;;;;;;6.33;4.53;;;25.90;99.90;;;;;;4988431;28;20555;-67
2022/08/05 07:22:25;;;;;;;5.50;4.33;;;26.00;99.90;;;;;;5007113;28;20441;-67
2022/08/05 07:24:53;;;;;;;5.43;4.80;;;26.00;99.90;;;;;;5030764;28;20449;-65
2022/08/05 07:27:20;;;;;;;6.33;4.87;;;26.10;99.90;;;;;;5030357;28;20495;-68
2022/08/05 07:29:46;;;;;;;9.43;5.20;;;26.20;99.90;;;;;;5030152;28;20445;-67
2022/08/05 07:32:13;;;;;;;7.33;3.90;;;26.30;99.90;;;;;;5030149;28;20451;-67
2022/08/05 07:34:42;;;;;;;4.80;3.80;;;26.50;99.90;;;;;;5029761;28;20449;-68
2022/08/05 07:37:09;;;;;;;6.20;4.50;;;26.70;99.90;;;;;;5029747;28;20838;-67
2022/08/05 07:39:35;;;;;;;5.50;4.60;;;26.80;99.90;;;;;;5029932;28;20459;-68
2022/08/05 07:42:03;;;;;;;4.73;4.33;;;27.00;99.60;;;;;;5030066;28;20540;-65
2022/08/05 07:44:29;;;;;;;5.70;4.50;;;27.10;98.90;;;;;;5029802;28;20969;-67
2022/08/05 07:46:56;;;;;;;7.47;4.50;;;27.20;98.50;;;;;;5029784;28;20499;-68
2022/08/05 07:49:23;;;;;;;5.27;4.77;;;27.20;98.70;;;;;;5029825;28;20536;-66
2022/08/05 07:51:51;;;;;;;4.33;3.90;;;27.30;98.30;;;;;;5029523;28;20452;-66
2022/08/05 07:54:20;;;;;;;4.50;3.90;;;27.20;98.00;;;;;;5030014;28;20445;-66
2022/08/05 07:56:47;;;;;;;6.93;4.13;;;27.20;98.10;;;;;;5029429;28;20469;-66
2022/08/05 07:59:14;;;;;;;6.13;4.40;;;27.30;97.40;;;;;;5029866;28;20477;-67
2022/08/05 08:01:41;;;;;;;4.83;3.43;;;27.40;97.00;;;;;;5030010;28;20818;-66
2022/08/05 08:04:08;;;;;;;4.67;3.37;;;27.50;95.90;;;;;;5029853;28;20789;-67
2022/08/05 08:06:34;;;;;;;6.27;4.63;;;27.50;96.10;;;;;;5029164;28;20489;-67
2022/08/05 08:09:03;;;;;;;6.40;3.60;;;27.70;96.20;;;;;;5029836;28;20453;-67
2022/08/05 08:11:30;;;;;;;6.23;3.70;;;27.70;95.90;;;;;;5030094;28;20452;-66
2022/08/05 08:13:57;;;;;;;3.47;2.67;;;27.80;93.60;;;;;;5029934;28;20507;-67
2022/08/05 08:16:24;;;;;;;2.73;2.33;;;27.70;92.70;;;;;;5029442;28;20471;-67
2022/08/05 08:18:50;;;;;;;4.33;3.13;;;27.80;92.50;;;;;;5029850;28;20453;-67
2022/08/05 08:21:17;;;;;;;3.30;3.00;;;27.70;92.20;;;;;;5029442;28;20445;-67
2022/08/05 08:23:44;;;;;;;3.50;2.50;;;27.80;91.80;;;;;;5030375;28;20445;-67
2022/08/05 08:26:13;;;;;;;4.70;2.50;;;27.80;91.00;;;;;;5030049;28;21207;-67
2022/08/05 08:28:40;;;;;;;3.53;2.50;;;27.90;91.70;;;;;;5030657;28;20440;-68
2022/08/05 08:31:07;;;;;;;4.87;3.27;;;27.90;91.00;;;;;;5030502;28;20448;-67
2022/08/05 08:33:34;;;;;;;4.23;2.80;;;28.00;90.80;;;;;;5030305;28;20449;-66
2022/08/05 08:36:01;;;;;;;3.80;2.90;;;27.80;91.20;;;;;;5030091;28;20483;-67
2022/08/05 08:38:28;;;;;;;3.10;2.70;;;27.80;91.10;;;;;;5029897;28;20477;-68
2022/08/05 08:40:55;;;;;;;3.20;2.90;;;27.70;90.80;;;;;;5030805;28;20448;-66
2022/08/05 08:43:25;;;;;;;4.47;2.87;;;27.90;91.00;;;;;;5033371;28;20459;-67
2022/08/05 08:45:53;;;;;;;4.33;2.77;;;28.00;90.90;;;;;;5033181;28;20477;-67
2022/08/05 08:48:21;;;;;;;3.20;2.10;;;28.10;91.00;;;;;;5033694;28;20449;-67
2022/08/05 08:50:49;;;;;;;3.40;2.53;;;28.20;90.10;;;;;;5033148;28;20551;-67
2022/08/05 08:53:16;;;;;;;3.10;2.43;;;28.20;89.90;;;;;;5033417;28;20456;-66
2022/08/05 08:55:44;;;;;;;3.70;2.80;;;28.50;89.30;;;;;;5032782;28;20465;-66
2022/08/05 08:58:11;;;;;;;3.03;2.73;;;28.60;88.80;;;;;;5033032;28;20528;-68
2022/08/05 09:00:40;;;;;;;6.43;2.70;;;28.60;87.80;;;;;;5033197;28;20452;-67
2022/08/05 09:03:07;;;;;;;5.50;2.47;;;28.60;87.60;;;;;;5033403;28;20451;-68
2022/08/05 09:05:34;;;;;;;3.40;2.90;;;28.50;86.60;;;;;;5032795;28;20474;-67
2022/08/05 09:08:01;;;;;;;3.40;2.77;;;28.40;87.00;;;;;;5032942;28;20484;-67
2022/08/05 09:10:28;;;;;;;3.40;2.60;;;28.40;87.00;;;;;;5032957;28;20806;-66
2022/08/05 09:12:55;;;;;;;3.63;2.77;;;28.50;88.20;;;;;;5032890;28;20441;-67
2022/08/05 09:15:22;;;;;;;3.43;2.60;;;28.60;85.90;;;;;;5032893;28;20472;-67
2022/08/05 09:17:51;;;;;;;5.80;3.20;;;28.70;86.50;;;;;;5033038;28;20440;-66
2022/08/05 09:20:18;;;;;;;3.23;2.80;;;28.90;84.60;;;;;;5032960;28;20536;-67
2022/08/05 09:23:11;;;;;;;3.63;2.80;;;29.00;85.00;;;;;;5032840;28;20559;-66
2022/08/05 09:25:40;;;;;;;6.23;2.77;;;29.30;84.50;;;;;;5032217;28;20482;-67
2022/08/05 09:28:14;;;;;;;4.60;2.80;;;29.50;83.70;;;;;;5032474;28;20480;-67
2022/08/05 09:30:53;;;;;;;4.70;3.10;;;29.60;82.50;;;;;;5032503;28;20452;-67
2022/08/05 09:33:22;;;;;;;3.60;2.70;;;29.50;81.10;;;;;;5032590;28;20950;-67
2022/08/05 09:35:59;;;;;;;4.33;2.63;;;29.30;81.50;;;;;;5032629;28;20999;-66
2022/08/05 09:38:26;;;;;;;4.33;2.70;;;29.30;82.00;;;;;;5032821;28;21000;-67
2022/08/05 09:40:55;;;;;;;3.13;2.50;;;29.30;81.10;;;;;;5032678;28;20967;-66
2022/08/05 09:43:30;;;;;;;3.53;2.60;;;29.70;82.40;;;;;;5032993;28;20498;-66
2022/08/05 09:45:57;;;;;;;5.83;2.50;;;29.90;80.60;;;;;;5032163;28;20464;-67
2022/08/05 09:48:28;;;;;;;5.43;2.63;;;30.00;80.30;;;;;;5032234;28;20481;-67
2022/08/05 09:50:57;;;;;;;3.03;2.73;;;30.20;80.00;;;;;;5032215;28;20879;-67
2022/08/05 09:53:24;;;;;;;4.80;3.10;;;30.50;77.80;;;;;;5030852;28;21002;-67
2022/08/05 09:55:53;;;;;;;3.40;2.40;;;31.20;77.00;;;;;;5031878;28;20468;-67
2022/08/05 09:58:20;;;;;;;4.67;2.50;;;31.80;74.20;;;;;;5031955;28;20832;-67
2022/08/05 10:00:59;;;;;;;5.60;2.70;;;32.40;72.40;;;;;;5031933;28;20966;-67
2022/08/05 10:03:28;;;;;;;4.40;2.40;;;32.70;70.90;;;;;;5032206;28;20997;-66
2022/08/05 10:06:03;;;;;;;3.57;2.20;;;33.00;69.10;;;;;;5031579;28;20471;-67
2022/08/05 10:08:30;;;;;;;2.87;2.47;;;33.00;67.30;;;;;;5031892;28;20476;-68
2022/08/05 10:10:58;;;;;;;3.60;2.63;;;33.50;66.50;;;;;;5032000;28;20449;-67
2022/08/05 10:13:31;;;;;;;2.77;2.43;;;33.80;62.50;;;;;;5031604;28;20460;-67
2022/08/05 10:15:59;;;;;;;3.33;2.63;;;33.80;63.70;;;;;;5031562;28;20473;-66
2022/08/05 10:18:31;;;;;;;2.50;2.00;;;33.90;63.90;;;;;;5031947;28;20460;-67
2022/08/05 10:21:00;;;;;;;2.93;1.97;;;34.50;63.20;;;;;;5031794;28;20452;-66
2022/08/05 10:23:29;;;;;;;3.73;2.10;;;35.20;60.90;;;;;;5031955;28;20457;-68
2022/08/05 10:25:56;;;;;;;2.87;2.37;;;35.50;58.40;;;;;;5031037;28;20916;-65
2022/08/05 10:28:23;;;;;;;3.53;2.27;;;35.20;58.10;;;;;;5031673;28;20473;-64
2022/08/05 10:30:51;;;;;;;3.63;2.03;;;35.00;59.00;;;;;;5031788;28;20449;-66
2022/08/05 10:33:18;;;;;;;5.03;2.20;;;34.90;59.40;;;;;;5031490;28;20453;-64
2022/08/05 10:35:46;;;;;;;6.53;2.30;;;34.60;58.10;;;;;;5031045;28;21012;-66
2022/08/05 10:38:14;;;;;;;4.93;2.30;;;34.50;58.40;;;;;;5031481;28;20469;-66
2022/08/05 10:40:47;;;;;;;4.20;2.07;;;34.40;58.70;;;;;;5031229;28;20461;-65
2022/08/05 10:43:24;;;;;;;2.83;2.40;;;34.20;59.80;;;;;;5031574;28;20449;-66
2022/08/05 10:45:58;;;;;;;3.43;2.37;;;34.50;59.20;;;;;;5031237;28;20469;-65
2022/08/05 10:48:36;;;;;;;3.07;2.40;;;34.80;58.10;;;;;;5031556;28;20481;-66
2022/08/05 10:51:08;;;;;;;4.00;2.00;;;35.10;58.80;;;;;;5031207;28;20536;-65
2022/08/05 10:53:43;;;;;;;2.77;1.93;;;35.30;57.90;;;;;;5031527;28;20549;-65
2022/08/05 10:56:14;;;;;;;3.00;2.60;;;35.30;56.60;;;;;;5031137;28;20471;-66
2022/08/05 10:58:49;;;;;;;3.10;2.37;;;34.90;57.50;;;;;;5031069;28;20483;-66
2022/08/05 11:01:16;;;;;;;4.03;1.90;;;34.60;57.40;;;;;;5031029;28;20448;-66
2022/08/05 11:04:07;;;;;;;2.93;2.20;;;34.60;57.60;;;;;;5030032;28;20961;-65
2022/08/05 11:06:56;;;;;;;2.70;2.33;;;34.30;57.90;;;;;;5030387;28;20998;-65
2022/08/05 11:09:26;;;;;;;3.57;2.60;;;33.90;58.20;;;;;;5030844;28;20445;-65
2022/08/05 11:11:56;;;;;;;2.80;2.47;;;33.80;59.10;;;;;;5030627;28;20448;-67
2022/08/05 11:14:25;;;;;;;3.73;2.47;;;34.00;58.70;;;;;;5030861;28;20467;-65
2022/08/05 11:17:31;;;;;;;2.80;2.47;;;34.10;59.20;;;;;;5030637;28;20477;-66
2022/08/05 11:19:58;;;;;;;2.80;2.10;;;34.90;59.20;;;;;;5030518;28;20535;-66
2022/08/05 11:22:43;;;;;;;4.53;3.30;;;35.60;56.50;;;;;;5030309;28;20484;-65
2022/08/05 11:25:32;;;;;;;4.07;2.53;;;35.50;55.70;;;;;;5030176;28;20451;-66
2022/08/05 11:28:32;;;;;;;6.13;2.90;;;35.10;56.50;;;;;;5030344;28;20476;-66
2022/08/05 11:31:18;;;;;;;2.90;2.60;;;34.80;56.80;;;;;;5030660;28;20502;-66
2022/08/05 11:33:55;;;;;;;3.93;2.40;;;34.60;57.10;;;;;;5030389;28;20809;-66
2022/08/05 11:36:39;;;;;;;4.33;2.70;;;35.00;57.00;;;;;;5029948;28;20481;-66
2022/08/05 11:39:05;;;;;;;4.00;2.50;;;35.20;56.70;;;;;;5030164;28;20445;-66
2022/08/05 11:41:35;;;;;;;2.77;2.40;;;35.10;56.10;;;;;;5030367;28;20445;-65
2022/08/05 11:44:06;;;;;;;3.07;2.50;;;34.60;55.80;;;;;;5030223;28;20472;-65
2022/08/05 11:46:34;;;;;;;4.33;2.60;;;34.40;57.40;;;;;;5029831;28;20511;-66
2022/08/05 11:49:02;;;;;;;3.73;2.63;;;34.60;57.50;;;;;;5030066;28;20878;-65
2022/08/05 11:51:30;;;;;;;4.20;2.23;;;35.00;56.30;;;;;;5030041;28;20506;-66
2022/08/05 11:53:59;;;;;;;3.80;2.67;;;35.10;55.40;;;;;;5030197;28;20824;-65
2022/08/05 11:56:26;;;;;;;3.10;2.40;;;35.10;55.50;;;;;;5029694;28;20563;-66
2022/08/05 11:58:54;;;;;;;3.90;2.40;;;35.30;55.60;;;;;;5030075;28;20445;-66
2022/08/05 12:01:22;;;;;;;3.93;2.90;;;35.80;54.80;;;;;;5030624;28;20483;-66
2022/08/05 12:03:51;;;;;;;3.43;2.13;;;36.00;53.80;;;;;;5030525;28;20445;-67
2022/08/05 12:06:23;;;;;;;4.27;2.27;;;35.60;54.20;;;;;;5030254;28;20998;-66
2022/08/05 12:08:51;;;;;;;3.27;2.30;;;35.80;55.20;;;;;;5029959;28;20485;-67
2022/08/05 12:11:19;;;;;;;5.23;2.50;;;36.30;54.20;;;;;;5030066;28;20495;-67
2022/08/05 12:13:55;;;;;;;3.47;2.73;;;36.80;52.50;;;;;;5029943;28;20946;-66
2022/08/05 12:16:23;;;;;;;3.80;2.60;;;36.90;52.80;;;;;;5028514;28;20468;-65
2022/08/05 12:18:51;;;;;;;3.90;2.60;;;36.10;52.50;;;;;;5029658;28;20949;-66
2022/08/05 12:21:20;;;;;;;2.83;2.40;;;35.50;54.10;;;;;;5029998;28;20446;-67
2022/08/05 12:23:54;;;;;;;3.20;2.60;;;35.40;55.40;;;;;;5029739;28;20448;-65
2022/08/05 12:26:21;;;;;;;3.50;2.03;;;35.60;54.00;;;;;;5029251;28;20479;-65
2022/08/05 12:28:48;;;;;;;4.33;2.60;;;36.10;53.40;;;;;;5029542;28;20871;-66
2022/08/05 12:31:16;;;;;;;3.57;2.50;;;36.60;52.50;;;;;;5029440;28;20456;-66
2022/08/05 12:33:44;;;;;;;5.73;2.80;;;36.80;52.40;;;;;;5029367;28;20541;-66
2022/08/05 12:36:12;;;;;;;3.53;2.40;;;37.30;52.60;;;;;;5029290;28;20558;-66
2022/08/05 12:38:39;;;;;;;3.03;2.30;;;37.90;50.80;;;;;;5029552;28;20480;-65
2022/08/05 12:41:09;;;;;;;2.70;2.10;;;38.10;49.90;;;;;;5029539;28;20962;-65
2022/08/05 12:43:49;;;;;;;4.40;2.50;;;38.10;50.10;;;;;;5029420;28;21099;-66
2022/08/05 12:46:22;;;;;;;6.13;2.40;;;37.50;49.80;;;;;;5029401;28;20522;-66
2022/08/05 12:48:57;;;;;;;3.40;2.30;;;36.30;51.40;;;;;;5029671;28;20491;-67
2022/08/05 12:51:26;;;;;;;3.20;2.43;;;35.30;52.90;;;;;;5029654;28;20448;-65
2022/08/05 12:53:59;;;;;;;6.73;2.80;;;34.80;54.50;;;;;;5029519;28;20539;-65
2022/08/05 12:56:26;;;;;;;3.53;2.23;;;34.60;55.00;;;;;;5029295;28;20978;-66
2022/08/05 12:59:13;;;;;;;4.10;2.80;;;34.40;55.20;;;;;;5029793;28;20449;-68